Time;durP1;ratioP1;P1;durP2;ratioP2;P2;SDS_P1;SDS_P2;PMS_P1;PMS_P2;Temp;Humidity;BMP_temperature;BMP_pressure;BME280_temperature;BME280_humidity;BME280_pressure;Samples;Min_cycle;Max_cycle;Signal;HPM_P1;HPM_P2
2023/12/12 12:33:13;;;;;;;;;;;;;;;;;;6225712;22;20323;-89
2023/12/12 12:35:49;;;;;;;;;;;;;;;;;;6221227;23;19917;-89
2023/12/12 12:38:33;;;;;;;;;;;;;;;;;;6221048;23;19907;-90
2023/12/12 12:40:59;;;;;;;;;;;;;;;;;;6221106;23;19961;-89
2023/12/12 12:43:24;;;;;;;;;;;;;;;;;;6247902;23;19908;-89
2023/12/12 19:33:08;;;;;;;;;;;;;;;;;;6218306;22;19927;-96
2023/12/12 19:35:37;;;;;;;;;;;;;;;;;;6197147;23;19912;-88
2023/12/12 19:38:06;;;;;;;;;;;;;;;;;;6195827;23;19919;-92
2023/12/12 19:40:36;;;;;;;;;;;;;;;;;;6218866;23;19924;-93
2023/12/12 19:43:05;;;;;;;;;;;;;;;;;;6218920;23;19938;-93
2023/12/12 19:45:30;;;;;;;;;;;;;;;;;;6219151;23;19947;-92
2023/12/12 19:47:56;;;;;;;;;;;;;;;;;;6220491;23;19915;-95
2023/12/12 19:50:21;;;;;;;;;;;;;;;;;;6219447;23;19915;-94
2023/12/12 19:52:48;;;;;;;;;;;;;;;;;;6225711;23;19908;-92
2023/12/12 19:55:14;;;;;;;;;;;;;;;;;;6222801;23;19988;-96
2023/12/12 19:57:45;;;;;;;;;;;;;;;;;;6221464;23;19908;-92
2023/12/12 20:00:11;;;;;;;;;;;;;;;;;;6194555;23;19908;-96
2023/12/12 20:02:36;;;;;;;;;;;;;;;;;;6195333;23;20277;-96
2023/12/12 20:05:03;;;;;;;;;;;;;;;;;;6193965;23;20494;-95
2023/12/12 20:07:29;;;;;;;;;;;;;;;;;;6193160;23;20415;-96
2023/12/12 20:09:55;;;;;;;;;;;;;;;;;;6166913;23;19962;-96
2023/12/12 20:12:20;;;;;;;;;;;;;;;;;;6192703;23;19911;-96
2023/12/12 20:14:47;;;;;;;;;;;;;;;;;;6208245;23;19891;-96
2023/12/12 20:17:12;;;;;;;;;;;;;;;;;;6197132;23;19959;-96
2023/12/12 20:19:38;;;;;;;;;;;;;;;;;;6195979;23;19908;-96
2023/12/12 20:22:05;;;;;;;;;;;;;;;;;;6198326;23;19915;-96
2023/12/12 20:29:31;;;;;;;;;;;;;;;;;;6188588;22;19920;-96
2023/12/12 20:32:12;;;;;;;;;;;;;;;;;;6252343;23;19962;-94
2023/12/12 20:34:37;;;;;;;;;;;;;;;;;;6228067;23;20262;-96
2023/12/12 20:37:03;;;;;;;;;;;;;;;;;;6252704;23;20000;-92
2023/12/12 20:39:28;;;;;;;;;;;;;;;;;;6231979;22;19986;-95
2023/12/12 20:41:54;;;;;;;;;;;;;;;;;;6256252;22;19982;-96
2023/12/12 20:44:20;;;;;;;;;;;;;;;;;;6286528;22;19914;-90
2023/12/12 20:46:46;;;;;;;;;;;;;;;;;;6281050;22;19930;-91
2023/12/12 20:49:11;;;;;;;;;;;;;;;;;;6253004;22;19910;-93
2023/12/12 20:51:40;;;;;;;;;;;;;;;;;;6280474;22;19951;-90
2023/12/12 20:54:05;;;;;;;;;;;;;;;;;;6280857;22;20277;-93
2023/12/12 20:56:33;;;;;;;;;;;;;;;;;;6253352;22;19907;-93
2023/12/12 20:58:59;;;;;;;;;;;;;;;;;;6281101;22;19907;-93
2023/12/12 21:01:24;;;;;;;;;;;;;;;;;;6280659;22;19910;-92
2023/12/12 21:03:50;;;;;;;;;;;;;;;;;;6279378;22;20057;-91
2023/12/12 21:06:15;;;;;;;;;;;;;;;;;;6281572;22;20281;-92
2023/12/12 21:08:41;;;;;;;;;;;;;;;;;;6253897;22;19907;-90
2023/12/12 21:11:13;;;;;;;;;;;;;;;;;;6279957;22;19907;-92
2023/12/12 21:13:39;;;;;;;;;;;;;;;;;;6279991;22;19907;-92
2023/12/12 21:16:25;;;;;;;;;;;;;;;;;;6253712;22;19908;-92
2023/12/12 21:18:51;;;;;;;;;;;;;;;;;;6282497;22;19914;-92
2023/12/12 21:21:17;;;;;;;;;;;;;;;;;;6287698;22;19907;-93
2023/12/12 21:23:42;;;;;;;;;;;;;;;;;;6284462;22;19914;-92
2023/12/12 21:26:07;;;;;;;;;;;;;;;;;;6288519;22;19938;-91
2023/12/12 21:28:33;;;;;;;;;;;;;;;;;;6260850;22;19919;-92
2023/12/12 21:30:58;;;;;;;;;;;;;;;;;;6308037;22;19956;-89
2023/12/12 21:33:24;;;;;;;;;;;;;;;;;;6311443;22;19917;-88
2023/12/12 21:35:50;;;;;;;;;;;;;;;;;;6311068;22;19948;-88
2023/12/12 21:38:20;;;;;;;;;;;;;;;;;;6283629;22;19913;-89
2023/12/12 21:40:45;;;;;;;;;;;;;;;;;;6282685;22;19906;-88
2023/12/12 21:43:11;;;;;;;;;;;;;;;;;;6309909;22;19956;-90
2023/12/12 21:45:36;;;;;;;;;;;;;;;;;;6282436;22;19907;-89
2023/12/12 21:48:01;;;;;;;;;;;;;;;;;;6309583;22;19914;-89
2023/12/12 21:50:27;;;;;;;;;;;;;;;;;;6284412;22;19914;-90
2023/12/12 21:52:53;;;;;;;;;;;;;;;;;;6313563;22;20313;-90
2023/12/12 21:55:18;;;;;;;;;;;;;;;;;;6314214;22;20344;-89
2023/12/12 21:57:44;;;;;;;;;;;;;;;;;;6314038;22;20284;-89
2023/12/12 22:00:09;;;;;;;;;;;;;;;;;;6286802;22;19959;-90
2023/12/12 22:02:35;;;;;;;;;;;;;;;;;;6313818;22;19913;-89
2023/12/12 22:05:01;;;;;;;;;;;;;;;;;;6313619;22;19906;-90
2023/12/12 22:07:26;;;;;;;;;;;;;;;;;;6312872;22;19981;-89
2023/12/12 22:09:53;;;;;;;;;;;;;;;;;;6313326;22;19907;-91
2023/12/12 22:12:18;;;;;;;;;;;;;;;;;;6312698;22;19938;-90
2023/12/12 22:14:43;;;;;;;;;;;;;;;;;;6312285;22;19910;-88
2023/12/12 22:17:08;;;;;;;;;;;;;;;;;;6312798;22;19913;-89
2023/12/12 22:19:34;;;;;;;;;;;;;;;;;;6284999;22;19914;-89
2023/12/12 22:21:59;;;;;;;;;;;;;;;;;;6285098;22;19913;-89
2023/12/12 22:24:24;;;;;;;;;;;;;;;;;;6312536;22;19914;-89
2023/12/12 22:26:50;;;;;;;;;;;;;;;;;;6312693;22;19960;-88
2023/12/12 22:29:15;;;;;;;;;;;;;;;;;;6312993;22;19911;-89
2023/12/12 22:31:43;;;;;;;;;;;;;;;;;;6312598;22;19960;-88
2023/12/12 22:34:08;;;;;;;;;;;;;;;;;;6312435;22;19906;-89
2023/12/12 22:36:34;;;;;;;;;;;;;;;;;;6285137;22;20241;-88
2023/12/12 22:38:59;;;;;;;;;;;;;;;;;;6312320;22;20237;-90
2023/12/12 22:41:25;;;;;;;;;;;;;;;;;;6285070;22;19907;-90
2023/12/12 22:43:51;;;;;;;;;;;;;;;;;;6312173;22;20237;-89
2023/12/12 22:46:23;;;;;;;;;;;;;;;;;;6312418;22;19907;-88
2023/12/12 22:48:49;;;;;;;;;;;;;;;;;;6312822;22;19907;-89
2023/12/12 22:51:15;;;;;;;;;;;;;;;;;;6312358;22;19942;-89
2023/12/12 22:53:40;;;;;;;;;;;;;;;;;;6285419;22;19907;-87
2023/12/12 22:56:10;;;;;;;;;;;;;;;;;;6285380;22;19986;-89
2023/12/12 22:58:38;;;;;;;;;;;;;;;;;;6284948;22;19907;-89
2023/12/12 23:01:03;;;;;;;;;;;;;;;;;;6311320;22;20323;-88
2023/12/12 23:03:28;;;;;;;;;;;;;;;;;;6310728;22;19907;-89
2023/12/12 23:05:54;;;;;;;;;;;;;;;;;;6311093;22;19911;-88
2023/12/12 23:08:19;;;;;;;;;;;;;;;;;;6310946;22;20318;-89
2023/12/12 23:10:44;;;;;;;;;;;;;;;;;;6310618;22;19981;-89
2023/12/12 23:13:10;;;;;;;;;;;;;;;;;;6311309;22;19978;-90
2023/12/12 23:15:35;;;;;;;;;;;;;;;;;;6257762;22;20313;-88
2023/12/12 23:18:02;;;;;;;;;;;;;;;;;;6310753;22;19907;-89
2023/12/12 23:20:27;;;;;;;;;;;;;;;;;;6284155;22;19933;-91
2023/12/12 23:22:53;;;;;;;;;;;;;;;;;;6283433;22;20314;-89
2023/12/12 23:25:18;;;;;;;;;;;;;;;;;;6310505;22;20336;-89
2023/12/12 23:27:43;;;;;;;;;;;;;;;;;;6310981;22;19954;-87
2023/12/12 23:30:09;;;;;;;;;;;;;;;;;;6312856;22;19949;-90
2023/12/12 23:32:34;;;;;;;;;;;;;;;;;;6310769;22;19914;-90
2023/12/12 23:35:00;;;;;;;;;;;;;;;;;;6310628;22;19942;-89
2023/12/12 23:37:25;;;;;;;;;;;;;;;;;;6310517;22;19907;-90
2023/12/12 23:39:50;;;;;;;;;;;;;;;;;;6310521;22;19909;-95
